Terminal Aerodrome Forecast
Issued by NWS Wilmington, OH

Current Version | Previous Version | Graphics & Text | Print | Product List | Glossary On
Versions: 1 2 3 4 5 6 7 8 9 10 11 12 13 14 15 16 17 18 19 20 21 22 23 24 25 26 27 28 29 30
000
FTUS41 KILN 272334
TAFILN
TAF
KILN 272334Z 2800/2824 07009KT 5SM HZ BKN014 OVC030
     FM280400 09008KT 5SM -SHRA BR OVC015
     FM280800 12005KT 3SM BR VCSH OVC008
     FM281400 24008KT P6SM OVC018
     FM281800 27010KT P6SM BKN035=

USA.gov is the U.S. government's official web portal to all federal, state and local government web resources and services.